Chestnutridge, Missouri
Current Conditions -  °F | °C
As of 10:55 PM on Wednesday 22 Oct 2014 (Local Time) from KFWB Reporting Station
Few Clouds Few Clouds  
Wind Chill: 55°   Ceiling: Unl
Heat Index: 55°   Visibility: 10mi
Dew Point: 46°   Wind: 7mph
Humidity: 72%   Direction: 120°ESE
Pressure: 30.19"   Gusts: NA
Location:  36.85°N, 93.18°W
Report Text: KFWB 230355Z AUTO 12006KT 10SM FEW038 13/08 A3019 RMK AO2
Loading
Personal Weather Stations






























Interactive Weather Map
Tropical Storm Tracking
New forecast layout! Learn more

10-Day Weather Forecast

Advertisements
Track Severe Weather on mobile